Versailles, CT (06383)

4:46 PM EST on December 21, 2014 (GMT -0500)
KCTBALTI2 | Change Station
CLOSE
Current Station
Personal Weather Station
Location: Baltic, CT
Elevation: 187 ft
Nearby Weather Stations

Elev 187 ft 41.62 °N, 72.09 °W | Updated 0 second ago

Overcast
Overcast
34.2 °F
Feels Like 34 °F
N
1.4
Wind Variable Wind from ESE
Gusts 1.4 mph

Today
High -- | Low -- °F
--% Chance of Precip.
Yesterday
High -- | Low -- °F
Precip. -- in
7:11 AM 4:21 PM
Waning Crescent, 0% visible
Pressure 30.29 in
Visibility 10.0 miles
Clouds Overcast 1400 ft
Windchill 34 °F
Dew Point 30 °F
Humidity 86%
Rainfall 0.02 in
Snow Depth Not available.
UV 0 out of 12
Pollen .10 out of 12
Air Quality Not available.
Flu Activity Not available.
METAR KIJD 212052Z AUTO 03005KT 10SM OVC014 02/M01 A3028 RMK AO2 SLP257 T00171011 53003

More Conditions Fewer Conditions

Pressure 30.29 in
Visibility 10.0 miles
Clouds Overcast 1400 ft
Windchill 34 °F
Dew Point 30 °F
Humidity 86%
Rainfall 0.02 in
Snow Depth Not available.
UV 0 out of 12
Pollen .10 out of 12
Air Quality Not available.
Flu Activity Not available.
METAR KIJD 212052Z AUTO 03005KT 10SM OVC014 02/M01 A3028 RMK AO2 SLP257 T00171011 53003

More Conditions Fewer Conditions

10-Day Weather Forecast

Almanac

Astronomy

Dec. 21, 2014 Rise Set
Actual Time
Civil Twilight
Nautical Twilight
Astronomical Twilight
Moon
Length of Visible Light
Length of Day
Tomorrow will be .
, % of the Moon is Illuminated

Today's Extremes

State Highs State Lows

Community

WunderPhotos

Upload Photos

1,779,486 photos uploaded!

WunderBlogs® & News

Nearby

Air Quality

  Air Quality AQ Index Pollutant
Not available.

Snow Depth

Station Depth Elevation

Earthquake Activity

City Distance Mag. Time & Date
Minimum magnitude displayed is 2.5.

Coastal Water Temperatures

Place Temperature

Nearby Weather Stations